Time;durP1;ratioP1;P1;durP2;ratioP2;P2;SDS_P1;SDS_P2;PMS_P1;PMS_P2;Temp;Humidity;BMP_temperature;BMP_pressure;BME280_temperature;BME280_humidity;BME280_pressure;Samples;Min_cycle;Max_cycle;Signal;HPM_P1;HPM_P2
2024/03/20 00:01:15;;;;;;;;;;;;;;;12.98;65.64;100154.06;4131726;28;20001;-68
2024/03/20 00:03:15;;;;;;;;;;;;;;;12.98;65.62;100154.06;4146776;28;19909;-68
2024/03/20 00:05:16;;;;;;;;;;;;;;;12.94;65.50;100154.38;4135117;28;19913;-67
2024/03/20 00:07:17;;;;;;;;;;;;;;;12.90;65.75;100150.34;4138954;28;20422;-69
2024/03/20 00:09:19;;;;;;;;;;;;;;;12.82;65.99;100147.59;4153174;28;19932;-69
2024/03/20 00:11:20;;;;;;;;;;;;;;;12.80;66.22;100152.28;4130067;28;19917;-70
2024/03/20 00:13:22;;;;;;;;;;;;;;;12.85;65.98;100143.75;4135308;28;19909;-69
2024/03/20 00:15:23;;;;;;;;;;;;;;;12.83;66.11;100141.25;4136997;28;19948;-70
2024/03/20 00:17:23;;;;;;;;;;;;;;;12.83;65.91;100141.25;4137391;28;19913;-69
2024/03/20 00:19:25;;;;;;;;;;;;;;;12.89;65.91;100142.44;4139409;28;19916;-70
2024/03/20 00:21:26;;;;;;;;;;;;;;;12.80;66.11;100153.09;4140077;28;20390;-69
2024/03/20 00:23:27;;;;;;;;;;;;;;;12.85;66.00;100149.94;4151989;28;19909;-67
2024/03/20 00:25:29;;;;;;;;;;;;;;;12.71;66.42;100153.22;4135827;28;19910;-68
2024/03/20 00:27:29;;;;;;;;;;;;;;;12.66;66.54;100151.00;4137429;28;19944;-66
2024/03/20 00:29:30;;;;;;;;;;;;;;;12.63;66.42;100152.16;4132332;28;20282;-68
2024/03/20 00:31:30;;;;;;;;;;;;;;;12.67;66.42;100154.50;4131783;28;20008;-66
2024/03/20 00:33:31;;;;;;;;;;;;;;;12.68;66.38;100148.16;4131679;28;19964;-66
2024/03/20 00:35:33;;;;;;;;;;;;;;;12.66;66.21;100145.63;4131716;28;19910;-70
2024/03/20 00:37:33;;;;;;;;;;;;;;;12.62;66.28;100142.41;4133084;28;20017;-68
2024/03/20 00:39:35;;;;;;;;;;;;;;;12.58;66.64;100138.34;4146827;28;19917;-70
2024/03/20 00:41:35;;;;;;;;;;;;;;;12.46;67.00;100140.44;4147761;28;19918;-68
2024/03/20 00:43:36;;;;;;;;;;;;;;;12.58;66.78;100138.34;4161229;28;19916;-70
2024/03/20 00:45:43;;;;;;;;;;;;;;;12.77;66.37;100131.97;4150748;28;19977;-69
2024/03/20 00:47:43;;;;;;;;;;;;;;;12.77;66.07;100133.78;4150976;28;19910;-69
2024/03/20 00:49:45;;;;;;;;;;;;;;;12.77;66.14;100136.47;4149089;28;19921;-68
2024/03/20 00:51:52;;;;;;;;;;;;;;;12.76;66.24;100132.97;4152092;28;19906;-68
2024/03/20 00:53:54;;;;;;;;;;;;;;;12.83;65.92;100138.56;4149982;28;19981;-67
2024/03/20 00:56:00;;;;;;;;;;;;;;;12.52;66.65;100139.00;4147424;28;19910;-69
2024/03/20 00:58:05;;;;;;;;;;;;;;;12.49;66.82;100131.25;4151029;28;19928;-70
2024/03/20 01:00:11;;;;;;;;;;;;;;;12.44;67.10;100133.56;4152509;28;19929;-68
2024/03/20 01:02:25;;;;;;;;;;;;;;;12.47;67.06;100130.56;4151217;28;20357;-73
2024/03/20 01:04:26;;;;;;;;;;;;;;;12.54;66.81;100125.41;4152394;28;19960;-68
2024/03/20 01:06:28;;;;;;;;;;;;;;;12.53;66.81;100132.63;4166527;28;19897;-73
2024/03/20 01:08:29;;;;;;;;;;;;;;;12.31;67.37;100126.75;4149140;28;19960;-70
2024/03/20 01:10:30;;;;;;;;;;;;;;;12.16;68.06;100122.94;4150156;28;19913;-70
2024/03/20 01:12:36;;;;;;;;;;;;;;;12.12;67.91;100126.91;4167080;28;19920;-69
2024/03/20 01:14:37;;;;;;;;;;;;;;;12.12;68.21;100126.91;4147215;28;19924;-67
2024/03/20 01:16:37;;;;;;;;;;;;;;;12.07;68.38;100118.50;4135155;28;19992;-70
2024/03/20 01:18:37;;;;;;;;;;;;;;;12.02;68.51;100119.78;4147379;28;19913;-69
2024/03/20 01:20:44;;;;;;;;;;;;;;;12.00;68.62;100123.59;4162002;28;19913;-67
2024/03/20 01:22:45;;;;;;;;;;;;;;;12.02;68.79;100122.47;4147618;28;19898;-69
2024/03/20 01:24:45;;;;;;;;;;;;;;;12.16;68.48;100114.88;4149575;28;19910;-69
2024/03/20 01:26:45;;;;;;;;;;;;;;;12.25;67.81;100113.97;4144772;28;19921;-70
2024/03/20 01:28:45;;;;;;;;;;;;;;;12.31;67.59;100110.66;4146211;28;19910;-67
2024/03/20 01:30:46;;;;;;;;;;;;;;;12.36;67.30;100109.38;4145654;28;20368;-70
2024/03/20 01:32:46;;;;;;;;;;;;;;;12.36;67.29;100115.56;4143906;28;19909;-67
2024/03/20 01:34:49;;;;;;;;;;;;;;;12.28;67.39;100120.84;4140223;28;19916;-70
2024/03/20 01:36:52;;;;;;;;;;;;;;;12.30;67.29;100119.69;4151322;28;19910;-67
2024/03/20 01:38:52;;;;;;;;;;;;;;;12.29;67.43;100117.19;4150136;28;19918;-67
2024/03/20 01:40:55;;;;;;;;;;;;;;;12.28;67.07;100121.69;4148719;28;19917;-68
2024/03/20 01:43:03;;;;;;;;;;;;;;;12.27;67.32;100114.66;4148338;28;19976;-68
2024/03/20 01:45:15;;;;;;;;;;;;;;;12.22;67.30;100119.63;4149788;28;19945;-70
2024/03/20 01:47:19;;;;;;;;;;;;;;;12.22;67.34;100122.31;4146798;28;19921;-72
2024/03/20 01:49:23;;;;;;;;;;;;;;;12.24;67.16;100114.97;4148453;28;19933;-70
2024/03/20 01:51:24;;;;;;;;;;;;;;;12.16;67.23;100123.75;4150727;28;19922;-68
2024/03/20 01:53:26;;;;;;;;;;;;;;;12.06;67.37;100116.81;4145844;28;19912;-70
2024/03/20 01:55:34;;;;;;;;;;;;;;;12.00;67.57;100113.72;4164244;28;19972;-68
2024/03/20 01:57:36;;;;;;;;;;;;;;;12.01;67.83;100114.59;4148611;28;19937;-72
2024/03/20 01:59:36;;;;;;;;;;;;;;;12.01;67.92;100112.72;4150176;28;19897;-70
2024/03/20 02:01:39;;;;;;;;;;;;;;;12.04;67.73;100118.78;4150802;28;19904;-73
2024/03/20 02:03:45;;;;;;;;;;;;;;;11.85;68.00;100116.03;4149358;28;19909;-70
2024/03/20 02:05:45;;;;;;;;;;;;;;;11.73;68.62;100119.09;4148257;28;19904;-69
2024/03/20 02:07:55;;;;;;;;;;;;;;;11.64;68.82;100118.19;4150305;28;19910;-72
2024/03/20 02:09:55;;;;;;;;;;;;;;;11.70;69.13;100112.22;4149681;28;19921;-70
2024/03/20 02:11:55;;;;;;;;;;;;;;;11.77;68.55;100120.50;4143689;28;19949;-68
2024/03/20 02:13:56;;;;;;;;;;;;;;;11.81;68.55;100116.50;4143929;28;19925;-70
2024/03/20 02:15:57;;;;;;;;;;;;;;;11.90;68.36;100115.63;4142224;28;19910;-74
2024/03/20 02:17:57;;;;;;;;;;;;;;;11.95;67.96;100104.44;4145343;28;19913;-68
2024/03/20 02:19:58;;;;;;;;;;;;;;;11.97;67.75;100115.84;4148771;28;19920;-69
2024/03/20 02:22:06;;;;;;;;;;;;;;;11.99;67.79;100106.72;4148849;28;19909;-68
2024/03/20 02:24:07;;;;;;;;;;;;;;;12.01;67.72;100115.41;4144885;28;19910;-68
2024/03/20 02:26:09;;;;;;;;;;;;;;;11.94;67.53;100111.63;4144397;28;19905;-71
2024/03/20 02:28:09;;;;;;;;;;;;;;;11.91;67.57;100117.28;4135332;28;19909;-70
2024/03/20 02:30:10;;;;;;;;;;;;;;;11.79;68.02;100116.66;4131021;28;19972;-71
2024/03/20 02:32:10;;;;;;;;;;;;;;;11.63;68.47;100125.34;4130359;28;19909;-67
2024/03/20 02:34:11;;;;;;;;;;;;;;;11.50;68.62;100122.19;4132455;28;20469;-67
2024/03/20 02:36:11;;;;;;;;;;;;;;;11.43;68.83;100119.28;4132870;28;19975;-68
2024/03/20 02:38:11;;;;;;;;;;;;;;;11.35;69.07;100114.66;4132550;28;20303;-69
2024/03/20 02:40:12;;;;;;;;;;;;;;;11.41;68.82;100117.75;4146258;28;19924;-68
2024/03/20 02:42:12;;;;;;;;;;;;;;;11.29;69.20;100111.75;4132706;28;19918;-68
2024/03/20 02:44:14;;;;;;;;;;;;;;;11.25;69.05;100105.81;4132667;28;19914;-68
2024/03/20 02:46:15;;;;;;;;;;;;;;;11.17;69.36;100106.56;4132216;28;19910;-67
2024/03/20 02:48:15;;;;;;;;;;;;;;;11.16;69.30;100117.41;4118326;28;19920;-67
2024/03/20 02:50:15;;;;;;;;;;;;;;;11.07;69.27;100113.78;4125109;28;19913;-68
2024/03/20 02:52:18;;;;;;;;;;;;;;;11.11;69.30;100125.03;4133584;28;19941;-70
2024/03/20 02:54:18;;;;;;;;;;;;;;;11.00;69.42;100118.88;4138377;28;19917;-69
2024/03/20 02:56:19;;;;;;;;;;;;;;;11.02;69.27;100119.59;4135079;28;20286;-69
2024/03/20 02:58:19;;;;;;;;;;;;;;;10.96;69.24;100119.31;4133411;28;19914;-69
2024/03/20 03:00:19;;;;;;;;;;;;;;;10.88;69.51;100114.69;4133232;28;19910;-69
2024/03/20 03:02:20;;;;;;;;;;;;;;;10.86;69.64;100116.69;4133475;28;19909;-68
2024/03/20 03:04:20;;;;;;;;;;;;;;;10.77;69.92;100113.88;4132321;28;19960;-70
2024/03/20 03:06:20;;;;;;;;;;;;;;;10.71;70.27;100109.09;4133647;28;19913;-69
2024/03/20 03:08:21;;;;;;;;;;;;;;;10.58;70.78;100111.25;4132771;28;20436;-67
2024/03/20 03:10:22;;;;;;;;;;;;;;;10.51;70.96;100126.16;4132359;28;20397;-68
2024/03/20 03:12:22;;;;;;;;;;;;;;;10.49;71.10;100122.78;4132585;28;19918;-70
2024/03/20 03:14:23;;;;;;;;;;;;;;;10.40;71.00;100117.31;4132101;28;20411;-67
2024/03/20 03:16:23;;;;;;;;;;;;;;;10.49;70.78;100122.78;4131770;28;20378;-67
2024/03/20 03:18:24;;;;;;;;;;;;;;;10.53;70.36;100121.53;4132117;28;20566;-69
2024/03/20 03:20:26;;;;;;;;;;;;;;;10.55;70.00;100130.25;4132284;28;19957;-69
2024/03/20 03:22:27;;;;;;;;;;;;;;;10.47;70.07;100128.28;4132170;28;19910;-69
2024/03/20 03:24:27;;;;;;;;;;;;;;;10.42;70.42;100128.69;4131897;28;19916;-68
2024/03/20 03:26:27;;;;;;;;;;;;;;;10.34;70.54;100127.72;4131936;28;19972;-68
2024/03/20 03:28:28;;;;;;;;;;;;;;;10.33;70.42;100129.53;4131340;28;20004;-66
2024/03/20 03:30:28;;;;;;;;;;;;;;;10.32;70.42;100127.81;4132099;28;19963;-68
2024/03/20 03:32:28;;;;;;;;;;;;;;;10.36;70.43;100123.91;4132200;28;19917;-70
2024/03/20 03:34:29;;;;;;;;;;;;;;;10.40;70.14;100124.50;4132134;28;19913;-67
2024/03/20 03:36:31;;;;;;;;;;;;;;;10.44;69.87;100128.56;4131151;28;19969;-68
2024/03/20 03:38:32;;;;;;;;;;;;;;;10.54;69.70;100129.38;4130955;28;19957;-66
2024/03/20 03:40:32;;;;;;;;;;;;;;;10.74;69.33;100126.69;4132010;28;19921;-67
2024/03/20 03:42:33;;;;;;;;;;;;;;;10.84;68.66;100137.38;4132080;28;19917;-68
2024/03/20 03:44:33;;;;;;;;;;;;;;;10.90;68.44;100131.44;4131226;28;19913;-68
2024/03/20 03:46:33;;;;;;;;;;;;;;;10.92;68.27;100134.81;4131657;28;20380;-69
2024/03/20 03:48:34;;;;;;;;;;;;;;;11.00;68.36;100129.59;4131849;28;19933;-69
2024/03/20 03:50:34;;;;;;;;;;;;;;;10.92;68.20;100129.47;4132035;28;19960;-68
2024/03/20 03:52:35;;;;;;;;;;;;;;;10.67;69.45;100131.78;4131038;28;20493;-67
2024/03/20 03:54:35;;;;;;;;;;;;;;;10.61;69.68;100132.34;4131732;28;19941;-67
2024/03/20 03:56:36;;;;;;;;;;;;;;;10.55;69.54;100136.41;4131654;28;19909;-67
2024/03/20 03:58:36;;;;;;;;;;;;;;;10.57;69.69;100136.31;4131105;28;19980;-69
2024/03/20 04:00:36;;;;;;;;;;;;;;;10.48;69.93;100137.16;4130660;28;19910;-69
2024/03/20 04:02:37;;;;;;;;;;;;;;;10.53;69.78;100140.22;4131421;28;19975;-67
2024/03/20 04:04:37;;;;;;;;;;;;;;;10.56;69.65;100134.63;4130902;28;19910;-69
2024/03/20 04:06:37;;;;;;;;;;;;;;;10.55;69.54;100136.41;4131340;28;19914;-69
2024/03/20 04:08:39;;;;;;;;;;;;;;;10.56;69.48;100140.78;4129983;28;20008;-67
2024/03/20 04:10:39;;;;;;;;;;;;;;;10.51;69.66;100139.53;4136849;28;19932;-67
2024/03/20 04:12:39;;;;;;;;;;;;;;;10.58;69.67;100146.00;4137766;28;19977;-69
2024/03/20 04:14:40;;;;;;;;;;;;;;;10.64;69.68;100140.09;4137307;28;19910;-68
2024/03/20 04:16:40;;;;;;;;;;;;;;;10.79;69.66;100144.97;4137214;28;19936;-67
2024/03/20 04:18:41;;;;;;;;;;;;;;;10.70;70.09;100139.50;4136649;28;19948;-67
2024/03/20 04:20:41;;;;;;;;;;;;;;;10.71;70.03;100149.22;4136395;28;19917;-68
2024/03/20 04:22:42;;;;;;;;;;;;;;;10.73;69.66;100143.72;4133312;28;20054;-68
2024/03/20 04:24:42;;;;;;;;;;;;;;;10.67;69.71;100147.81;4132187;28;19940;-67
2024/03/20 04:26:42;;;;;;;;;;;;;;;10.60;70.04;100142.19;4131503;28;20368;-68
2024/03/20 04:28:43;;;;;;;;;;;;;;;10.63;69.95;100140.25;4131147;28;19917;-67
2024/03/20 04:30:43;;;;;;;;;;;;;;;10.61;69.79;100145.72;4131612;28;20289;-67
2024/03/20 04:32:44;;;;;;;;;;;;;;;10.56;70.25;100142.63;4131445;28;19910;-70
2024/03/20 04:34:44;;;;;;;;;;;;;;;10.56;70.03;100137.28;4131605;28;20517;-69
2024/03/20 04:36:44;;;;;;;;;;;;;;;10.56;70.03;100145.31;4131308;28;19910;-69
2024/03/20 04:38:45;;;;;;;;;;;;;;;10.47;70.22;100151.50;4130634;28;20394;-70
2024/03/20 04:40:45;;;;;;;;;;;;;;;10.45;70.79;100148.94;4131405;28;19919;-69
2024/03/20 04:42:45;;;;;;;;;;;;;;;10.41;70.24;100159.09;4131378;28;20325;-69
2024/03/20 04:44:46;;;;;;;;;;;;;;;10.41;69.94;100143.03;4131086;28;19909;-70
2024/03/20 04:46:46;;;;;;;;;;;;;;;10.34;69.92;100147.25;4131395;28;19960;-68
2024/03/20 04:48:47;;;;;;;;;;;;;;;10.38;70.15;100154.03;4131445;28;19913;-68
2024/03/20 04:50:48;;;;;;;;;;;;;;;10.39;69.89;100152.19;4131105;28;19924;-67
2024/03/20 04:52:48;;;;;;;;;;;;;;;10.39;70.08;100147.69;4129356;28;19922;-68
2024/03/20 04:54:48;;;;;;;;;;;;;;;10.33;69.89;100148.22;4129645;28;19914;-68
2024/03/20 04:56:49;;;;;;;;;;;;;;;10.37;70.27;100144.34;4129435;28;19936;-69
2024/03/20 04:58:49;;;;;;;;;;;;;;;10.43;69.87;100146.44;4129222;28;19917;-68
2024/03/20 05:00:49;;;;;;;;;;;;;;;10.38;69.61;100159.38;4131054;28;19952;-68
2024/03/20 05:02:50;;;;;;;;;;;;;;;10.39;69.60;100150.34;4130789;28;19910;-67
2024/03/20 05:04:50;;;;;;;;;;;;;;;10.35;69.50;100148.94;4130685;28;20481;-69
2024/03/20 05:06:51;;;;;;;;;;;;;;;10.43;69.47;100148.28;4130709;28;20494;-69
2024/03/20 05:08:51;;;;;;;;;;;;;;;10.33;70.05;100156.25;4130325;28;20362;-68
2024/03/20 05:10:51;;;;;;;;;;;;;;;10.32;70.07;100151.06;4129534;28;20448;-66
2024/03/20 05:12:52;;;;;;;;;;;;;;;10.29;70.20;100154.84;4131068;28;19913;-70
2024/03/20 05:14:52;;;;;;;;;;;;;;;10.35;69.84;100161.44;4130642;28;20012;-70
2024/03/20 05:16:52;;;;;;;;;;;;;;;10.08;69.93;100153.16;4130558;28;20382;-68
2024/03/20 05:18:53;;;;;;;;;;;;;;;10.05;70.31;100166.78;4130253;28;19936;-67
2024/03/20 05:20:53;;;;;;;;;;;;;;;9.97;70.26;100164.78;4130574;28;19997;-69
2024/03/20 05:22:54;;;;;;;;;;;;;;;9.88;70.54;100156.75;4130170;28;19924;-69
2024/03/20 05:24:54;;;;;;;;;;;;;;;9.86;70.69;100158.72;4130037;28;19968;-70
2024/03/20 05:26:54;;;;;;;;;;;;;;;9.81;70.66;100161.81;4130134;28;20286;-70
2024/03/20 05:28:55;;;;;;;;;;;;;;;9.77;70.78;100165.75;4129421;28;20333;-68
2024/03/20 05:30:55;;;;;;;;;;;;;;;9.80;70.82;100152.09;4131982;28;20374;-68
2024/03/20 05:32:55;;;;;;;;;;;;;;;9.98;70.27;100147.78;4130902;28;19910;-68
2024/03/20 05:34:55;;;;;;;;;;;;;;;10.06;69.93;100155.09;4130456;28;19924;-69
2024/03/20 05:36:56;;;;;;;;;;;;;;;10.09;69.66;100165.53;4130350;28;19912;-67
2024/03/20 05:38:56;;;;;;;;;;;;;;;10.12;69.52;100159.88;4130600;28;19976;-66
2024/03/20 05:40:56;;;;;;;;;;;;;;;10.15;69.61;100159.63;4131441;28;19920;-70
2024/03/20 05:42:57;;;;;;;;;;;;;;;10.19;69.56;100165.53;4130069;28;19921;-69
2024/03/20 05:44:57;;;;;;;;;;;;;;;10.22;69.19;100165.25;4130694;28;20432;-68
2024/03/20 05:46:59;;;;;;;;;;;;;;;10.15;69.47;100167.63;4130840;28;19909;-67
2024/03/20 05:49:00;;;;;;;;;;;;;;;10.24;69.28;100167.78;4130963;28;19910;-67
2024/03/20 05:51:00;;;;;;;;;;;;;;;10.19;69.32;100176.19;4130737;28;19936;-68
2024/03/20 05:53:00;;;;;;;;;;;;;;;10.12;70.13;100173.22;4130519;28;19921;-68
2024/03/20 05:55:01;;;;;;;;;;;;;;;10.11;69.87;100174.22;4130549;28;19916;-67
2024/03/20 05:57:01;;;;;;;;;;;;;;;10.10;70.13;100182.38;4130619;28;20294;-69
2024/03/20 05:59:01;;;;;;;;;;;;;;;10.14;69.96;100179.28;4130466;28;19967;-68
2024/03/20 06:01:02;;;;;;;;;;;;;;;10.15;69.86;100178.31;4129995;28;20282;-68
2024/03/20 06:03:02;;;;;;;;;;;;;;;10.03;70.29;100186.59;4129876;28;19913;-68
2024/03/20 06:05:03;;;;;;;;;;;;;;;10.09;70.09;100181.53;4129352;28;19924;-67
2024/03/20 06:07:04;;;;;;;;;;;;;;;10.10;70.14;100188.59;4127175;28;19936;-70
2024/03/20 06:09:04;;;;;;;;;;;;;;;10.15;69.93;100189.00;4127666;28;20398;-69
2024/03/20 06:11:05;;;;;;;;;;;;;;;10.23;69.69;100182.09;4128283;28;19913;-67
2024/03/20 06:13:05;;;;;;;;;;;;;;;10.23;69.32;100192.78;4129396;28;20002;-68
2024/03/20 06:15:07;;;;;;;;;;;;;;;10.26;69.54;100188.00;4130276;28;20000;-70
2024/03/20 06:17:09;;;;;;;;;;;;;;;10.27;69.37;100189.72;4128852;28;19918;-69
2024/03/20 06:19:09;;;;;;;;;;;;;;;10.33;69.16;100188.31;4130481;28;19914;-68
2024/03/20 06:21:10;;;;;;;;;;;;;;;10.37;69.12;100189.75;4130376;28;20255;-69
2024/03/20 06:23:13;;;;;;;;;;;;;;;10.40;68.79;100193.97;4130186;28;20371;-69
2024/03/20 06:25:13;;;;;;;;;;;;;;;10.43;69.00;100193.72;4130014;28;19964;-68
2024/03/20 06:27:14;;;;;;;;;;;;;;;10.46;68.41;100198.75;4128298;28;20016;-70
2024/03/20 06:29:14;;;;;;;;;;;;;;;10.13;69.90;100198.13;4130724;28;19909;-66
2024/03/20 06:31:15;;;;;;;;;;;;;;;10.20;69.94;100193.09;4129957;28;19916;-67
2024/03/20 06:33:16;;;;;;;;;;;;;;;10.03;70.50;100198.09;4130240;28;19933;-68
2024/03/20 06:35:16;;;;;;;;;;;;;;;9.89;70.73;100193.16;4130956;28;19952;-67
2024/03/20 06:37:17;;;;;;;;;;;;;;;9.82;71.27;100196.38;4129616;28;19921;-70
2024/03/20 06:39:17;;;;;;;;;;;;;;;9.75;71.58;100200.56;4129885;28;19996;-68
2024/03/20 06:41:18;;;;;;;;;;;;;;;9.92;71.72;100195.56;4129913;28;19964;-67
2024/03/20 06:43:18;;;;;;;;;;;;;;;9.98;70.98;100209.19;4129922;28;20013;-69
2024/03/20 06:45:19;;;;;;;;;;;;;;;10.18;69.84;100200.41;4130429;28;19914;-69
2024/03/20 06:47:19;;;;;;;;;;;;;;;10.10;70.44;100204.63;4129106;28;19971;-69
2024/03/20 06:49:25;;;;;;;;;;;;;;;10.05;70.66;100201.50;4129634;28;19940;-68
2024/03/20 06:51:32;;;;;;;;;;;;;;;10.13;70.48;100204.31;4130085;28;19920;-68
2024/03/20 06:53:34;;;;;;;;;;;;;;;10.09;70.66;100208.25;4129709;28;19952;-70
2024/03/20 06:55:36;;;;;;;;;;;;;;;10.32;70.64;100201.81;4129526;28;20000;-69
2024/03/20 06:57:36;;;;;;;;;;;;;;;10.46;70.09;100204.09;4129371;28;19918;-69
2024/03/20 06:59:40;;;;;;;;;;;;;;;10.54;69.82;100206.91;4129587;28;20400;-69
2024/03/20 07:01:40;;;;;;;;;;;;;;;10.75;69.19;100211.25;4129884;28;19916;-69
2024/03/20 07:03:41;;;;;;;;;;;;;;;10.83;68.81;100216.75;4129427;28;19916;-68
2024/03/20 07:05:42;;;;;;;;;;;;;;;10.92;68.26;100209.72;4128200;28;20305;-68
2024/03/20 07:07:43;;;;;;;;;;;;;;;11.01;68.29;100211.53;4128584;28;20008;-68
2024/03/20 07:09:43;;;;;;;;;;;;;;;11.16;67.66;100208.38;4129799;28;20380;-68
2024/03/20 07:11:44;;;;;;;;;;;;;;;11.10;67.66;100211.66;4129762;28;19972;-66
2024/03/20 07:13:45;;;;;;;;;;;;;;;11.17;67.12;100216.28;4129119;28;19913;-67
2024/03/20 07:15:46;;;;;;;;;;;;;;;11.30;67.50;100217.78;4129179;28;19909;-68
2024/03/20 07:17:47;;;;;;;;;;;;;;;11.18;67.06;100219.78;4128254;28;20469;-67
2024/03/20 07:19:52;;;;;;;;;;;;;;;11.38;67.08;100216.06;4129963;28;19993;-67
2024/03/20 07:21:52;;;;;;;;;;;;;;;11.31;67.74;100214.13;4131385;28;19918;-69
2024/03/20 07:23:53;;;;;;;;;;;;;;;11.32;66.74;100216.66;4133183;28;19948;-68
2024/03/20 07:25:53;;;;;;;;;;;;;;;11.49;66.86;100215.03;4132356;28;19913;-68
2024/03/20 07:27:54;;;;;;;;;;;;;;;11.65;66.27;100222.44;4132324;28;19917;-67
2024/03/20 07:29:54;;;;;;;;;;;;;;;11.76;65.97;100223.25;4130753;28;19917;-69
2024/03/20 07:31:55;;;;;;;;;;;;;;;11.94;65.56;100221.47;4131710;28;19913;-68
2024/03/20 07:33:55;;;;;;;;;;;;;;;11.90;65.76;100224.59;4132336;28;19968;-67
2024/03/20 07:35:56;;;;;;;;;;;;;;;12.07;65.32;100225.66;4131651;28;19963;-68
2024/03/20 07:37:56;;;;;;;;;;;;;;;12.09;65.36;100223.69;4131935;28;19914;-67
2024/03/20 07:39:56;;;;;;;;;;;;;;;11.96;65.45;100227.53;4142205;28;19936;-68
2024/03/20 07:41:58;;;;;;;;;;;;;;;11.94;65.73;100226.81;4144337;28;20234;-71
2024/03/20 07:43:59;;;;;;;;;;;;;;;12.16;65.43;100233.63;4143111;28;19936;-68
2024/03/20 07:45:59;;;;;;;;;;;;;;;12.25;65.09;100229.22;4141489;28;20422;-70
2024/03/20 07:47:59;;;;;;;;;;;;;;;12.43;64.94;100225.72;4139431;28;19917;-68
2024/03/20 07:50:03;;;;;;;;;;;;;;;12.50;64.62;100232.13;4138660;28;19936;-68
2024/03/20 07:52:05;;;;;;;;;;;;;;;12.59;63.73;100227.72;4140499;28;19914;-68
2024/03/20 07:54:05;;;;;;;;;;;;;;;12.73;63.51;100221.78;4143582;28;19910;-70
2024/03/20 07:56:05;;;;;;;;;;;;;;;12.87;62.92;100217.72;4145294;28;19956;-70
2024/03/20 07:58:06;;;;;;;;;;;;;;;12.93;63.18;100219.78;4147384;28;19921;-70
2024/03/20 08:00:08;;;;;;;;;;;;;;;12.84;63.15;100218.03;4136112;28;19956;-68
2024/03/20 08:02:09;;;;;;;;;;;;;;;12.84;63.67;100223.41;4133726;28;20382;-71
2024/03/20 08:04:09;;;;;;;;;;;;;;;12.80;63.46;100227.38;4133458;28;20063;-69
2024/03/20 08:06:10;;;;;;;;;;;;;;;13.05;62.60;100222.19;4131680;28;19910;-68
2024/03/20 08:08:10;;;;;;;;;;;;;;;13.17;62.51;100220.13;4138065;28;19956;-68
2024/03/20 08:10:12;;;;;;;;;;;;;;;13.44;61.80;100216.44;4144208;28;19921;-67
2024/03/20 08:12:12;;;;;;;;;;;;;;;13.57;61.27;100214.19;4140962;28;19910;-69
2024/03/20 08:14:13;;;;;;;;;;;;;;;13.82;60.65;100211.59;4141849;28;19914;-68
2024/03/20 08:16:14;;;;;;;;;;;;;;;14.05;59.99;100211.00;4140760;28;19984;-66
2024/03/20 08:18:16;;;;;;;;;;;;;;;14.06;60.21;100210.00;4133403;28;19959;-67
2024/03/20 08:20:18;;;;;;;;;;;;;;;14.32;59.82;100209.03;4134017;28;19956;-69
2024/03/20 08:22:19;;;;;;;;;;;;;;;14.46;59.36;100202.16;4132456;28;20025;-69
2024/03/20 08:24:19;;;;;;;;;;;;;;;14.69;58.91;100204.25;4131869;28;20425;-68
2024/03/20 08:26:20;;;;;;;;;;;;;;;14.89;58.24;100210.13;4132800;28;19980;-67
2024/03/20 08:28:21;;;;;;;;;;;;;;;15.36;56.99;100204.00;4131556;28;19916;-68
2024/03/20 08:30:22;;;;;;;;;;;;;;;15.70;55.62;100199.34;4131917;28;19910;-69
2024/03/20 08:32:23;;;;;;;;;;;;;;;15.63;55.48;100198.38;4130846;28;20386;-67
2024/03/20 08:34:25;;;;;;;;;;;;;;;15.76;54.80;100198.63;4131559;28;19964;-69
2024/03/20 08:36:26;;;;;;;;;;;;;;;15.65;54.68;100199.00;4131491;28;19992;-69
2024/03/20 08:38:27;;;;;;;;;;;;;;;15.75;55.74;100203.19;4129866;28;19918;-69
2024/03/20 08:40:30;;;;;;;;;;;;;;;15.80;55.61;100205.38;4132111;28;19920;-67
2024/03/20 08:42:30;;;;;;;;;;;;;;;15.78;55.22;100199.31;4131558;28;20360;-69
2024/03/20 08:44:31;;;;;;;;;;;;;;;16.06;54.63;100190.78;4131377;28;19910;-67
2024/03/20 08:46:35;;;;;;;;;;;;;;;16.22;54.32;100195.22;4132260;28;19916;-67
2024/03/20 08:48:36;;;;;;;;;;;;;;;16.53;53.62;100197.06;4131657;28;19909;-68
2024/03/20 08:50:40;;;;;;;;;;;;;;;16.58;53.32;100186.53;4131381;28;20016;-69
2024/03/20 08:52:40;;;;;;;;;;;;;;;16.53;53.25;100195.19;4131371;28;19932;-69
2024/03/20 08:54:44;;;;;;;;;;;;;;;16.55;53.13;100197.69;4131190;28;19910;-67
2024/03/20 08:56:46;;;;;;;;;;;;;;;17.00;51.86;100190.56;4130760;28;20370;-68
2024/03/20 08:58:48;;;;;;;;;;;;;;;17.07;50.72;100182.59;4130982;28;19913;-69
2024/03/20 09:00:49;;;;;;;;;;;;;;;17.52;50.65;100193.44;4131289;28;20330;-69
2024/03/20 09:02:50;;;;;;;;;;;;;;;17.92;49.28;100188.53;4129873;28;19910;-68
2024/03/20 09:04:50;;;;;;;;;;;;;;;18.12;49.21;100187.97;4131758;28;20325;-67
2024/03/20 09:06:51;;;;;;;;;;;;;;;17.84;49.75;100191.34;4131211;28;19964;-68
2024/03/20 09:08:51;;;;;;;;;;;;;;;17.87;49.60;100190.13;4131559;28;19910;-68
2024/03/20 09:10:52;;;;;;;;;;;;;;;18.02;49.37;100187.44;4131291;28;19910;-68
2024/03/20 09:12:53;;;;;;;;;;;;;;;18.20;48.28;100187.00;4131039;28;19914;-68
2024/03/20 09:14:53;;;;;;;;;;;;;;;18.14;48.03;100191.28;4131182;28;19926;-67
2024/03/20 09:16:54;;;;;;;;;;;;;;;18.32;48.03;100185.47;4131118;28;19918;-68
2024/03/20 09:18:54;;;;;;;;;;;;;;;18.20;48.15;100182.44;4130725;28;19972;-69
2024/03/20 09:20:56;;;;;;;;;;;;;;;18.37;48.16;100180.28;4131129;28;20231;-69
2024/03/20 09:22:57;;;;;;;;;;;;;;;18.70;46.48;100184.38;4129622;28;20362;-67
2024/03/20 09:24:58;;;;;;;;;;;;;;;19.08;45.77;100184.06;4131317;28;19910;-68
2024/03/20 09:26:59;;;;;;;;;;;;;;;19.31;45.19;100174.84;4131253;28;19964;-67
2024/03/20 09:29:00;;;;;;;;;;;;;;;19.49;44.55;100169.72;4131317;28;19910;-69
2024/03/20 09:31:01;;;;;;;;;;;;;;;19.23;45.28;100173.09;4130014;28;19910;-70
2024/03/20 09:33:01;;;;;;;;;;;;;;;19.38;44.87;100162.16;4129720;28;20384;-69
2024/03/20 09:35:02;;;;;;;;;;;;;;;19.69;44.40;100166.28;4130907;28;19920;-69
2024/03/20 09:37:03;;;;;;;;;;;;;;;19.38;45.18;100166.75;4132287;28;19990;-67
2024/03/20 09:39:04;;;;;;;;;;;;;;;19.24;45.46;100163.13;4132067;28;19995;-65
2024/03/20 09:41:09;;;;;;;;;;;;;;;19.01;45.57;100169.63;4131492;28;20010;-67
2024/03/20 09:43:10;;;;;;;;;;;;;;;19.47;44.69;100158.25;4131360;28;20481;-68
2024/03/20 09:45:13;;;;;;;;;;;;;;;19.47;44.70;100157.41;4131829;28;19917;-66
2024/03/20 09:47:14;;;;;;;;;;;;;;;19.80;44.09;100159.41;4130684;28;20100;-68
2024/03/20 09:49:16;;;;;;;;;;;;;;;20.07;43.28;100157.69;4131817;28;19910;-69
2024/03/20 09:51:18;;;;;;;;;;;;;;;20.20;42.78;100158.75;4114603;28;19945;-66
2024/03/20 09:53:19;;;;;;;;;;;;;;;20.15;43.07;100161.25;4131862;28;19964;-67
2024/03/20 09:55:20;;;;;;;;;;;;;;;20.32;43.04;100159.81;4131671;28;19976;-67
2024/03/20 09:57:24;;;;;;;;;;;;;;;20.41;42.24;100152.31;4131284;28;20774;-69
2024/03/20 09:59:25;;;;;;;;;;;;;;;20.25;42.82;100158.97;4132073;28;19909;-68
2024/03/20 10:01:26;;;;;;;;;;;;;;;20.05;42.43;100159.75;4131595;28;20013;-68
2024/03/20 10:03:27;;;;;;;;;;;;;;;20.38;42.43;100153.56;4131831;28;20298;-67
2024/03/20 10:05:27;;;;;;;;;;;;;;;20.72;42.00;100148.16;4132162;28;19909;-67
2024/03/20 10:07:28;;;;;;;;;;;;;;;20.90;41.65;100149.44;4131692;28;19948;-67
2024/03/20 10:09:29;;;;;;;;;;;;;;;20.72;41.69;100150.88;4132706;28;19932;-69
2024/03/20 10:11:32;;;;;;;;;;;;;;;20.90;41.50;100138.56;4130818;28;19925;-68
2024/03/20 10:13:33;;;;;;;;;;;;;;;20.86;41.45;100149.84;4131946;28;19909;-68
2024/03/20 10:15:33;;;;;;;;;;;;;;;21.06;41.11;100142.72;4131646;28;19913;-66
2024/03/20 10:17:35;;;;;;;;;;;;;;;21.05;40.44;100144.59;4130902;28;19910;-67
2024/03/20 10:19:36;;;;;;;;;;;;;;;21.00;40.72;100142.50;4130563;28;20362;-68
2024/03/20 10:21:38;;;;;;;;;;;;;;;21.18;40.44;100143.72;4131032;28;19910;-70
2024/03/20 10:23:44;;;;;;;;;;;;;;;20.93;39.68;100144.41;4131892;28;19910;-68